sensor_id;sensor_type;location;lat;lon;timestamp;P1;durP1;ratioP1;P2;durP2;ratioP2
23565;SDS011;22140;48.988;8.544;2022-07-06T00:02:40;6.17;;;2.10;;
23565;SDS011;22140;48.988;8.544;2022-07-06T00:07:42;8.10;;;2.38;;
23565;SDS011;22140;48.988;8.544;2022-07-06T00:12:43;6.78;;;2.20;;
23565;SDS011;22140;48.988;8.544;2022-07-06T00:17:44;6.03;;;2.00;;
23565;SDS011;22140;48.988;8.544;2022-07-06T00:22:46;6.23;;;2.20;;
23565;SDS011;22140;48.988;8.544;2022-07-06T00:27:47;7.80;;;2.10;;
23565;SDS011;22140;48.988;8.544;2022-07-06T00:32:48;6.93;;;2.20;;
23565;SDS011;22140;48.988;8.544;2022-07-06T00:37:50;6.00;;;2.10;;
23565;SDS011;22140;48.988;8.544;2022-07-06T00:42:52;6.55;;;2.10;;
23565;SDS011;22140;48.988;8.544;2022-07-06T00:47:53;5.85;;;2.53;;
23565;SDS011;22140;48.988;8.544;2022-07-06T00:52:55;6.67;;;2.27;;
23565;SDS011;22140;48.988;8.544;2022-07-06T00:57:57;6.43;;;2.30;;
23565;SDS011;22140;48.988;8.544;2022-07-06T01:02:58;8.43;;;2.78;;
23565;SDS011;22140;48.988;8.544;2022-07-06T01:08:00;7.10;;;2.50;;
23565;SDS011;22140;48.988;8.544;2022-07-06T01:13:02;7.67;;;2.40;;
23565;SDS011;22140;48.988;8.544;2022-07-06T01:18:04;8.00;;;2.50;;
23565;SDS011;22140;48.988;8.544;2022-07-06T01:23:05;7.38;;;2.40;;
23565;SDS011;22140;48.988;8.544;2022-07-06T01:28:07;6.33;;;2.63;;
23565;SDS011;22140;48.988;8.544;2022-07-06T01:33:08;6.97;;;2.22;;
23565;SDS011;22140;48.988;8.544;2022-07-06T01:38:09;8.02;;;2.50;;
23565;SDS011;22140;48.988;8.544;2022-07-06T01:43:11;7.97;;;2.67;;
23565;SDS011;22140;48.988;8.544;2022-07-06T01:48:12;7.22;;;2.80;;
23565;SDS011;22140;48.988;8.544;2022-07-06T01:53:13;5.75;;;2.17;;
23565;SDS011;22140;48.988;8.544;2022-07-06T01:58:15;5.57;;;2.20;;
23565;SDS011;22140;48.988;8.544;2022-07-06T02:03:16;7.13;;;2.60;;
23565;SDS011;22140;48.988;8.544;2022-07-06T02:08:17;6.68;;;2.45;;
23565;SDS011;22140;48.988;8.544;2022-07-06T02:13:19;6.23;;;2.50;;
23565;SDS011;22140;48.988;8.544;2022-07-06T02:18:20;5.70;;;2.20;;
23565;SDS011;22140;48.988;8.544;2022-07-06T02:23:22;5.50;;;2.45;;
23565;SDS011;22140;48.988;8.544;2022-07-06T02:28:24;7.13;;;2.40;;
23565;SDS011;22140;48.988;8.544;2022-07-06T02:33:26;8.70;;;2.37;;
23565;SDS011;22140;48.988;8.544;2022-07-06T02:38:27;6.13;;;2.45;;
23565;SDS011;22140;48.988;8.544;2022-07-06T02:43:29;7.70;;;2.70;;
23565;SDS011;22140;48.988;8.544;2022-07-06T02:48:30;6.60;;;2.73;;
23565;SDS011;22140;48.988;8.544;2022-07-06T02:53:31;8.55;;;2.55;;
23565;SDS011;22140;48.988;8.544;2022-07-06T02:58:33;7.32;;;2.83;;
23565;SDS011;22140;48.988;8.544;2022-07-06T03:03:34;8.93;;;2.70;;
23565;SDS011;22140;48.988;8.544;2022-07-06T03:08:35;7.93;;;2.93;;
23565;SDS011;22140;48.988;8.544;2022-07-06T03:13:37;6.30;;;2.78;;
23565;SDS011;22140;48.988;8.544;2022-07-06T03:18:38;8.63;;;2.97;;
23565;SDS011;22140;48.988;8.544;2022-07-06T03:23:40;9.30;;;2.90;;
23565;SDS011;22140;48.988;8.544;2022-07-06T03:28:41;7.30;;;2.78;;
23565;SDS011;22140;48.988;8.544;2022-07-06T03:33:42;7.53;;;3.15;;
23565;SDS011;22140;48.988;8.544;2022-07-06T03:38:44;6.40;;;3.10;;
23565;SDS011;22140;48.988;8.544;2022-07-06T03:43:45;6.65;;;3.00;;
23565;SDS011;22140;48.988;8.544;2022-07-06T03:48:46;7.15;;;3.00;;
23565;SDS011;22140;48.988;8.544;2022-07-06T03:53:48;7.13;;;3.03;;
23565;SDS011;22140;48.988;8.544;2022-07-06T03:58:49;8.63;;;3.42;;
23565;SDS011;22140;48.988;8.544;2022-07-06T04:03:50;7.32;;;3.20;;
23565;SDS011;22140;48.988;8.544;2022-07-06T04:08:52;9.80;;;3.97;;
23565;SDS011;22140;48.988;8.544;2022-07-06T04:13:53;7.33;;;3.00;;
23565;SDS011;22140;48.988;8.544;2022-07-06T04:18:55;12.30;;;3.55;;
23565;SDS011;22140;48.988;8.544;2022-07-06T04:23:57;8.43;;;3.40;;
23565;SDS011;22140;48.988;8.544;2022-07-06T04:28:58;8.17;;;3.60;;
23565;SDS011;22140;48.988;8.544;2022-07-06T04:33:59;9.65;;;3.33;;
23565;SDS011;22140;48.988;8.544;2022-07-06T04:39:00;9.38;;;3.90;;
23565;SDS011;22140;48.988;8.544;2022-07-06T04:44:02;7.90;;;3.07;;
23565;SDS011;22140;48.988;8.544;2022-07-06T04:49:03;7.57;;;3.60;;
23565;SDS011;22140;48.988;8.544;2022-07-06T04:54:04;7.30;;;3.60;;
23565;SDS011;22140;48.988;8.544;2022-07-06T04:59:06;5.93;;;3.20;;
23565;SDS011;22140;48.988;8.544;2022-07-06T05:04:08;6.80;;;3.10;;
23565;SDS011;22140;48.988;8.544;2022-07-06T05:09:09;7.50;;;2.92;;
23565;SDS011;22140;48.988;8.544;2022-07-06T05:14:10;8.80;;;2.90;;
23565;SDS011;22140;48.988;8.544;2022-07-06T05:19:12;8.17;;;3.00;;
23565;SDS011;22140;48.988;8.544;2022-07-06T05:24:13;7.50;;;2.60;;
23565;SDS011;22140;48.988;8.544;2022-07-06T05:29:15;6.90;;;2.70;;
23565;SDS011;22140;48.988;8.544;2022-07-06T05:34:16;6.63;;;2.77;;
23565;SDS011;22140;48.988;8.544;2022-07-06T05:39:18;6.70;;;2.75;;
23565;SDS011;22140;48.988;8.544;2022-07-06T05:44:22;6.25;;;2.38;;
23565;SDS011;22140;48.988;8.544;2022-07-06T05:49:23;6.93;;;2.10;;
23565;SDS011;22140;48.988;8.544;2022-07-06T05:54:43;5.80;;;2.15;;
23565;SDS011;22140;48.988;8.544;2022-07-06T05:59:44;5.93;;;2.28;;
23565;SDS011;22140;48.988;8.544;2022-07-06T06:04:46;6.20;;;2.30;;
23565;SDS011;22140;48.988;8.544;2022-07-06T06:09:47;9.20;;;2.20;;
23565;SDS011;22140;48.988;8.544;2022-07-06T06:14:48;6.65;;;2.20;;
23565;SDS011;22140;48.988;8.544;2022-07-06T06:19:49;7.13;;;2.17;;
23565;SDS011;22140;48.988;8.544;2022-07-06T06:24:51;7.23;;;2.20;;
23565;SDS011;22140;48.988;8.544;2022-07-06T06:29:52;5.80;;;2.17;;
23565;SDS011;22140;48.988;8.544;2022-07-06T06:34:53;5.70;;;2.13;;
23565;SDS011;22140;48.988;8.544;2022-07-06T06:39:55;7.80;;;2.10;;
23565;SDS011;22140;48.988;8.544;2022-07-06T06:44:56;6.72;;;2.15;;
23565;SDS011;22140;48.988;8.544;2022-07-06T06:49:57;7.30;;;2.53;;
23565;SDS011;22140;48.988;8.544;2022-07-06T06:54:59;7.47;;;2.57;;
23565;SDS011;22140;48.988;8.544;2022-07-06T07:00:00;8.37;;;2.40;;
23565;SDS011;22140;48.988;8.544;2022-07-06T07:05:02;7.20;;;2.20;;
23565;SDS011;22140;48.988;8.544;2022-07-06T07:10:04;7.13;;;2.20;;
23565;SDS011;22140;48.988;8.544;2022-07-06T07:15:06;7.57;;;2.20;;
23565;SDS011;22140;48.988;8.544;2022-07-06T07:20:08;7.60;;;2.50;;
23565;SDS011;22140;48.988;8.544;2022-07-06T07:25:09;6.82;;;2.50;;
23565;SDS011;22140;48.988;8.544;2022-07-06T07:30:11;8.77;;;2.33;;
23565;SDS011;22140;48.988;8.544;2022-07-06T07:35:13;8.43;;;2.50;;
23565;SDS011;22140;48.988;8.544;2022-07-06T07:40:14;7.45;;;2.35;;
23565;SDS011;22140;48.988;8.544;2022-07-06T07:45:15;10.37;;;2.50;;
23565;SDS011;22140;48.988;8.544;2022-07-06T07:50:16;7.50;;;2.90;;
23565;SDS011;22140;48.988;8.544;2022-07-06T07:55:19;9.43;;;3.17;;
23565;SDS011;22140;48.988;8.544;2022-07-06T08:00:40;8.63;;;2.83;;
23565;SDS011;22140;48.988;8.544;2022-07-06T08:05:41;8.03;;;2.60;;
23565;SDS011;22140;48.988;8.544;2022-07-06T08:10:43;6.63;;;2.60;;
23565;SDS011;22140;48.988;8.544;2022-07-06T08:16:04;6.90;;;2.78;;
23565;SDS011;22140;48.988;8.544;2022-07-06T08:21:07;7.33;;;2.20;;
23565;SDS011;22140;48.988;8.544;2022-07-06T08:26:26;8.55;;;2.95;;
23565;SDS011;22140;48.988;8.544;2022-07-06T08:31:28;8.10;;;2.80;;
23565;SDS011;22140;48.988;8.544;2022-07-06T08:36:49;8.40;;;2.80;;
23565;SDS011;22140;48.988;8.544;2022-07-06T08:41:51;6.53;;;2.77;;
23565;SDS011;22140;48.988;8.544;2022-07-06T08:46:52;6.07;;;2.65;;
23565;SDS011;22140;48.988;8.544;2022-07-06T08:51:55;7.60;;;2.90;;
23565;SDS011;22140;48.988;8.544;2022-07-06T08:56:57;7.37;;;2.60;;
23565;SDS011;22140;48.988;8.544;2022-07-06T09:01:58;9.00;;;2.65;;
23565;SDS011;22140;48.988;8.544;2022-07-06T09:07:01;7.93;;;2.70;;
23565;SDS011;22140;48.988;8.544;2022-07-06T09:12:03;8.57;;;4.33;;
23565;SDS011;22140;48.988;8.544;2022-07-06T09:17:05;8.73;;;3.20;;
23565;SDS011;22140;48.988;8.544;2022-07-06T09:22:24;8.75;;;3.20;;
23565;SDS011;22140;48.988;8.544;2022-07-06T09:27:25;12.10;;;3.00;;
23565;SDS011;22140;48.988;8.544;2022-07-06T09:32:27;7.87;;;2.90;;
23565;SDS011;22140;48.988;8.544;2022-07-06T09:37:29;9.60;;;3.22;;
23565;SDS011;22140;48.988;8.544;2022-07-06T09:42:30;7.55;;;3.13;;
23565;SDS011;22140;48.988;8.544;2022-07-06T09:47:32;9.20;;;2.97;;
23565;SDS011;22140;48.988;8.544;2022-07-06T09:52:34;10.43;;;2.70;;
23565;SDS011;22140;48.988;8.544;2022-07-06T09:57:35;7.90;;;2.65;;
23565;SDS011;22140;48.988;8.544;2022-07-06T10:02:36;9.27;;;2.60;;
23565;SDS011;22140;48.988;8.544;2022-07-06T10:07:38;7.00;;;2.40;;
23565;SDS011;22140;48.988;8.544;2022-07-06T10:12:40;9.25;;;2.45;;
23565;SDS011;22140;48.988;8.544;2022-07-06T10:17:43;7.00;;;2.50;;
23565;SDS011;22140;48.988;8.544;2022-07-06T10:22:46;7.77;;;2.47;;
23565;SDS011;22140;48.988;8.544;2022-07-06T10:27:48;6.30;;;2.35;;
23565;SDS011;22140;48.988;8.544;2022-07-06T10:32:49;9.20;;;2.50;;
23565;SDS011;22140;48.988;8.544;2022-07-06T10:38:04;7.17;;;2.70;;
23565;SDS011;22140;48.988;8.544;2022-07-06T10:43:08;7.95;;;2.70;;
23565;SDS011;22140;48.988;8.544;2022-07-06T10:53:17;7.80;;;2.33;;
23565;SDS011;22140;48.988;8.544;2022-07-06T11:09:12;6.67;;;2.23;;
23565;SDS011;22140;48.988;8.544;2022-07-06T11:14:16;7.57;;;2.37;;
23565;SDS011;22140;48.988;8.544;2022-07-06T11:19:21;9.88;;;2.63;;
23565;SDS011;22140;48.988;8.544;2022-07-06T11:24:26;5.40;;;2.40;;
23565;SDS011;22140;48.988;8.544;2022-07-06T11:29:28;6.53;;;2.50;;
23565;SDS011;22140;48.988;8.544;2022-07-06T11:34:30;8.77;;;2.72;;
23565;SDS011;22140;48.988;8.544;2022-07-06T11:39:32;5.72;;;2.40;;
23565;SDS011;22140;48.988;8.544;2022-07-06T11:44:34;7.63;;;2.30;;
23565;SDS011;22140;48.988;8.544;2022-07-06T11:49:37;7.88;;;2.60;;
23565;SDS011;22140;48.988;8.544;2022-07-06T11:54:39;5.75;;;2.40;;
23565;SDS011;22140;48.988;8.544;2022-07-06T11:59:41;6.33;;;2.50;;
23565;SDS011;22140;48.988;8.544;2022-07-06T12:04:44;5.67;;;2.17;;
23565;SDS011;22140;48.988;8.544;2022-07-06T12:09:46;6.63;;;2.38;;
23565;SDS011;22140;48.988;8.544;2022-07-06T12:14:48;7.10;;;2.30;;
23565;SDS011;22140;48.988;8.544;2022-07-06T12:19:53;8.07;;;2.57;;
23565;SDS011;22140;48.988;8.544;2022-07-06T12:24:57;5.93;;;2.08;;
23565;SDS011;22140;48.988;8.544;2022-07-06T12:30:09;9.48;;;2.45;;
23565;SDS011;22140;48.988;8.544;2022-07-06T12:35:11;6.23;;;2.10;;
23565;SDS011;22140;48.988;8.544;2022-07-06T12:40:13;5.60;;;2.20;;
23565;SDS011;22140;48.988;8.544;2022-07-06T12:45:15;6.20;;;2.45;;
23565;SDS011;22140;48.988;8.544;2022-07-06T12:50:16;7.73;;;2.20;;
23565;SDS011;22140;48.988;8.544;2022-07-06T12:55:17;6.77;;;1.90;;
23565;SDS011;22140;48.988;8.544;2022-07-06T13:00:26;7.72;;;2.22;;
23565;SDS011;22140;48.988;8.544;2022-07-06T13:05:27;5.45;;;1.98;;
23565;SDS011;22140;48.988;8.544;2022-07-06T13:10:29;6.77;;;2.20;;
23565;SDS011;22140;48.988;8.544;2022-07-06T13:15:32;7.10;;;2.28;;
23565;SDS011;22140;48.988;8.544;2022-07-06T13:20:33;8.13;;;2.25;;
23565;SDS011;22140;48.988;8.544;2022-07-06T13:25:34;7.27;;;2.60;;
23565;SDS011;22140;48.988;8.544;2022-07-06T13:30:36;5.40;;;2.47;;
23565;SDS011;22140;48.988;8.544;2022-07-06T13:35:37;6.07;;;2.05;;
23565;SDS011;22140;48.988;8.544;2022-07-06T13:40:39;4.90;;;2.10;;
23565;SDS011;22140;48.988;8.544;2022-07-06T13:45:42;6.17;;;2.00;;
23565;SDS011;22140;48.988;8.544;2022-07-06T13:50:43;6.25;;;2.00;;
23565;SDS011;22140;48.988;8.544;2022-07-06T13:55:45;5.15;;;2.00;;
23565;SDS011;22140;48.988;8.544;2022-07-06T14:00:47;5.97;;;2.00;;
23565;SDS011;22140;48.988;8.544;2022-07-06T14:05:48;5.00;;;2.00;;
23565;SDS011;22140;48.988;8.544;2022-07-06T14:10:50;6.75;;;2.00;;
23565;SDS011;22140;48.988;8.544;2022-07-06T14:15:51;5.97;;;1.77;;
23565;SDS011;22140;48.988;8.544;2022-07-06T14:20:53;6.28;;;2.20;;
23565;SDS011;22140;48.988;8.544;2022-07-06T14:25:55;5.93;;;1.70;;
23565;SDS011;22140;48.988;8.544;2022-07-06T14:30:56;6.43;;;1.90;;
23565;SDS011;22140;48.988;8.544;2022-07-06T14:35:58;5.47;;;1.80;;
23565;SDS011;22140;48.988;8.544;2022-07-06T14:41:00;6.43;;;1.92;;
23565;SDS011;22140;48.988;8.544;2022-07-06T14:46:01;5.85;;;1.65;;
23565;SDS011;22140;48.988;8.544;2022-07-06T14:51:03;5.27;;;1.60;;
23565;SDS011;22140;48.988;8.544;2022-07-06T14:56:04;5.38;;;1.52;;
23565;SDS011;22140;48.988;8.544;2022-07-06T15:01:06;5.05;;;1.60;;
23565;SDS011;22140;48.988;8.544;2022-07-06T15:06:07;5.20;;;1.60;;
23565;SDS011;22140;48.988;8.544;2022-07-06T15:11:28;4.72;;;1.58;;
23565;SDS011;22140;48.988;8.544;2022-07-06T15:16:30;4.80;;;1.60;;
23565;SDS011;22140;48.988;8.544;2022-07-06T15:21:31;6.03;;;1.47;;
23565;SDS011;22140;48.988;8.544;2022-07-06T15:26:32;6.50;;;1.53;;
23565;SDS011;22140;48.988;8.544;2022-07-06T15:31:34;6.53;;;1.60;;
23565;SDS011;22140;48.988;8.544;2022-07-06T15:36:35;6.53;;;1.88;;
23565;SDS011;22140;48.988;8.544;2022-07-06T15:41:37;5.73;;;1.83;;
23565;SDS011;22140;48.988;8.544;2022-07-06T15:46:38;6.70;;;1.70;;
23565;SDS011;22140;48.988;8.544;2022-07-06T15:51:40;6.13;;;1.80;;
23565;SDS011;22140;48.988;8.544;2022-07-06T15:56:41;5.20;;;1.60;;
23565;SDS011;22140;48.988;8.544;2022-07-06T16:01:42;7.78;;;1.98;;
23565;SDS011;22140;48.988;8.544;2022-07-06T16:06:44;5.10;;;1.75;;
23565;SDS011;22140;48.988;8.544;2022-07-06T16:12:05;9.70;;;2.57;;
23565;SDS011;22140;48.988;8.544;2022-07-06T16:17:09;8.90;;;2.30;;
23565;SDS011;22140;48.988;8.544;2022-07-06T16:22:10;6.45;;;2.08;;
23565;SDS011;22140;48.988;8.544;2022-07-06T16:27:12;5.60;;;2.10;;
23565;SDS011;22140;48.988;8.544;2022-07-06T16:32:13;6.20;;;2.07;;
23565;SDS011;22140;48.988;8.544;2022-07-06T16:37:14;5.10;;;2.00;;
23565;SDS011;22140;48.988;8.544;2022-07-06T16:42:16;6.55;;;2.05;;
23565;SDS011;22140;48.988;8.544;2022-07-06T16:47:18;4.77;;;1.77;;
23565;SDS011;22140;48.988;8.544;2022-07-06T16:52:19;6.95;;;2.30;;
23565;SDS011;22140;48.988;8.544;2022-07-06T16:57:21;6.88;;;3.20;;
23565;SDS011;22140;48.988;8.544;2022-07-06T17:02:22;6.30;;;2.23;;
23565;SDS011;22140;48.988;8.544;2022-07-06T17:07:24;6.47;;;2.10;;
23565;SDS011;22140;48.988;8.544;2022-07-06T17:12:25;5.00;;;1.80;;
23565;SDS011;22140;48.988;8.544;2022-07-06T17:17:27;7.85;;;2.00;;
23565;SDS011;22140;48.988;8.544;2022-07-06T17:22:28;6.93;;;1.90;;
23565;SDS011;22140;48.988;8.544;2022-07-06T17:27:30;5.38;;;1.92;;
23565;SDS011;22140;48.988;8.544;2022-07-06T17:32:31;8.50;;;1.77;;
23565;SDS011;22140;48.988;8.544;2022-07-06T17:37:33;6.00;;;1.97;;
23565;SDS011;22140;48.988;8.544;2022-07-06T17:42:34;6.03;;;1.70;;
23565;SDS011;22140;48.988;8.544;2022-07-06T17:47:36;8.63;;;1.80;;
23565;SDS011;22140;48.988;8.544;2022-07-06T17:52:39;5.13;;;1.50;;
23565;SDS011;22140;48.988;8.544;2022-07-06T17:57:40;6.33;;;1.27;;
23565;SDS011;22140;48.988;8.544;2022-07-06T18:02:41;4.57;;;1.30;;
23565;SDS011;22140;48.988;8.544;2022-07-06T18:07:44;5.20;;;1.38;;
23565;SDS011;22140;48.988;8.544;2022-07-06T18:12:46;6.83;;;1.30;;
23565;SDS011;22140;48.988;8.544;2022-07-06T18:17:47;7.55;;;1.52;;
23565;SDS011;22140;48.988;8.544;2022-07-06T18:22:59;5.15;;;1.33;;
23565;SDS011;22140;48.988;8.544;2022-07-06T18:28:01;5.57;;;1.70;;
23565;SDS011;22140;48.988;8.544;2022-07-06T18:33:02;3.60;;;1.00;;
23565;SDS011;22140;48.988;8.544;2022-07-06T18:38:04;5.78;;;1.20;;
23565;SDS011;22140;48.988;8.544;2022-07-06T18:43:05;4.13;;;1.00;;
23565;SDS011;22140;48.988;8.544;2022-07-06T18:48:07;6.23;;;1.20;;
23565;SDS011;22140;48.988;8.544;2022-07-06T18:53:12;5.95;;;1.33;;
23565;SDS011;22140;48.988;8.544;2022-07-06T18:58:17;5.80;;;1.33;;
23565;SDS011;22140;48.988;8.544;2022-07-06T19:03:18;4.73;;;1.07;;
23565;SDS011;22140;48.988;8.544;2022-07-06T19:08:20;3.90;;;1.23;;
23565;SDS011;22140;48.988;8.544;2022-07-06T19:13:21;5.00;;;1.30;;
23565;SDS011;22140;48.988;8.544;2022-07-06T19:18:22;4.07;;;1.20;;
23565;SDS011;22140;48.988;8.544;2022-07-06T19:23:24;5.78;;;1.20;;
23565;SDS011;22140;48.988;8.544;2022-07-06T19:28:26;4.53;;;1.10;;
23565;SDS011;22140;48.988;8.544;2022-07-06T19:33:28;6.60;;;1.33;;
23565;SDS011;22140;48.988;8.544;2022-07-06T19:38:30;5.17;;;1.10;;
23565;SDS011;22140;48.988;8.544;2022-07-06T19:43:32;8.05;;;1.30;;
23565;SDS011;22140;48.988;8.544;2022-07-06T19:48:34;5.50;;;1.20;;
23565;SDS011;22140;48.988;8.544;2022-07-06T19:53:37;5.03;;;1.40;;
23565;SDS011;22140;48.988;8.544;2022-07-06T19:58:39;5.03;;;1.42;;
23565;SDS011;22140;48.988;8.544;2022-07-06T20:03:40;3.90;;;1.00;;
23565;SDS011;22140;48.988;8.544;2022-07-06T20:08:42;5.30;;;1.30;;
23565;SDS011;22140;48.988;8.544;2022-07-06T20:13:43;6.30;;;1.30;;
23565;SDS011;22140;48.988;8.544;2022-07-06T20:18:45;4.43;;;1.00;;
23565;SDS011;22140;48.988;8.544;2022-07-06T20:23:52;5.40;;;1.30;;
23565;SDS011;22140;48.988;8.544;2022-07-06T20:28:54;4.80;;;1.20;;
23565;SDS011;22140;48.988;8.544;2022-07-06T20:33:55;4.15;;;0.93;;
23565;SDS011;22140;48.988;8.544;2022-07-06T20:38:57;6.07;;;1.33;;
23565;SDS011;22140;48.988;8.544;2022-07-06T20:43:58;3.80;;;1.03;;
23565;SDS011;22140;48.988;8.544;2022-07-06T20:49:00;4.10;;;1.13;;
23565;SDS011;22140;48.988;8.544;2022-07-06T20:54:01;7.40;;;1.85;;
23565;SDS011;22140;48.988;8.544;2022-07-06T20:59:03;5.27;;;1.30;;
23565;SDS011;22140;48.988;8.544;2022-07-06T21:04:14;7.30;;;1.23;;
23565;SDS011;22140;48.988;8.544;2022-07-06T21:09:15;4.97;;;1.10;;
23565;SDS011;22140;48.988;8.544;2022-07-06T21:14:17;6.70;;;1.10;;
23565;SDS011;22140;48.988;8.544;2022-07-06T21:19:18;4.00;;;1.10;;
23565;SDS011;22140;48.988;8.544;2022-07-06T21:24:19;4.60;;;1.30;;
23565;SDS011;22140;48.988;8.544;2022-07-06T21:29:21;6.47;;;1.55;;
23565;SDS011;22140;48.988;8.544;2022-07-06T21:34:22;5.30;;;1.30;;
23565;SDS011;22140;48.988;8.544;2022-07-06T21:39:23;4.60;;;1.33;;
23565;SDS011;22140;48.988;8.544;2022-07-06T21:44:25;6.05;;;1.40;;
23565;SDS011;22140;48.988;8.544;2022-07-06T21:49:26;5.77;;;1.43;;
23565;SDS011;22140;48.988;8.544;2022-07-06T21:54:27;6.80;;;1.20;;
23565;SDS011;22140;48.988;8.544;2022-07-06T21:59:29;6.75;;;1.50;;
23565;SDS011;22140;48.988;8.544;2022-07-06T22:04:31;6.83;;;1.50;;
23565;SDS011;22140;48.988;8.544;2022-07-06T22:09:32;6.50;;;1.77;;
23565;SDS011;22140;48.988;8.544;2022-07-06T22:14:33;5.75;;;1.55;;
23565;SDS011;22140;48.988;8.544;2022-07-06T22:19:35;7.15;;;1.42;;
23565;SDS011;22140;48.988;8.544;2022-07-06T22:24:36;6.50;;;1.70;;
23565;SDS011;22140;48.988;8.544;2022-07-06T22:29:37;6.35;;;1.83;;
23565;SDS011;22140;48.988;8.544;2022-07-06T22:34:39;7.13;;;1.83;;
23565;SDS011;22140;48.988;8.544;2022-07-06T22:39:40;5.63;;;1.70;;
23565;SDS011;22140;48.988;8.544;2022-07-06T22:44:41;5.80;;;1.50;;
23565;SDS011;22140;48.988;8.544;2022-07-06T22:49:43;7.72;;;1.88;;
23565;SDS011;22140;48.988;8.544;2022-07-06T22:54:44;6.80;;;1.63;;
23565;SDS011;22140;48.988;8.544;2022-07-06T22:59:45;5.47;;;1.50;;
23565;SDS011;22140;48.988;8.544;2022-07-06T23:04:47;6.05;;;2.33;;
23565;SDS011;22140;48.988;8.544;2022-07-06T23:09:48;6.45;;;1.50;;
23565;SDS011;22140;48.988;8.544;2022-07-06T23:14:49;5.70;;;1.47;;
23565;SDS011;22140;48.988;8.544;2022-07-06T23:19:52;6.93;;;1.75;;
23565;SDS011;22140;48.988;8.544;2022-07-06T23:24:54;8.15;;;1.65;;
23565;SDS011;22140;48.988;8.544;2022-07-06T23:29:55;6.30;;;1.90;;
23565;SDS011;22140;48.988;8.544;2022-07-06T23:34:56;6.03;;;1.80;;
23565;SDS011;22140;48.988;8.544;2022-07-06T23:39:58;6.15;;;1.67;;
23565;SDS011;22140;48.988;8.544;2022-07-06T23:44:59;11.37;;;7.90;;
23565;SDS011;22140;48.988;8.544;2022-07-06T23:50:00;8.03;;;1.70;;
23565;SDS011;22140;48.988;8.544;2022-07-06T23:55:02;5.60;;;1.80;;
